sensor_id;sensor_type;location;lat;lon;timestamp;temperature;humidity
64843;DHT22;51310;52.198;5.422;2022-12-10T00:01:38;-1.00;99.90
64843;DHT22;51310;52.198;5.422;2022-12-10T00:04:05;-1.00;99.90
64843;DHT22;51310;52.198;5.422;2022-12-10T00:06:33;-1.10;99.90
64843;DHT22;51310;52.198;5.422;2022-12-10T00:09:02;-1.10;99.90
64843;DHT22;51310;52.198;5.422;2022-12-10T00:11:31;-1.10;99.90
64843;DHT22;51310;52.198;5.422;2022-12-10T00:13:58;-1.10;99.90
64843;DHT22;51310;52.198;5.422;2022-12-10T00:16:26;-1.00;99.90
64843;DHT22;51310;52.198;5.422;2022-12-10T00:18:54;-1.10;99.90
64843;DHT22;51310;52.198;5.422;2022-12-10T00:21:24;-1.10;99.90
64843;DHT22;51310;52.198;5.422;2022-12-10T00:23:53;-1.10;99.90
64843;DHT22;51310;52.198;5.422;2022-12-10T00:26:25;-1.00;99.90
64843;DHT22;51310;52.198;5.422;2022-12-10T00:28:57;-1.10;99.90
64843;DHT22;51310;52.198;5.422;2022-12-10T00:31:29;-1.00;99.90
64843;DHT22;51310;52.198;5.422;2022-12-10T00:34:01;-1.00;99.90
64843;DHT22;51310;52.198;5.422;2022-12-10T00:36:36;-1.00;99.90
64843;DHT22;51310;52.198;5.422;2022-12-10T00:39:05;-1.00;99.90
64843;DHT22;51310;52.198;5.422;2022-12-10T00:41:31;-1.00;99.90
64843;DHT22;51310;52.198;5.422;2022-12-10T00:43:57;-1.00;99.90
64843;DHT22;51310;52.198;5.422;2022-12-10T00:46:23;-0.90;99.90
64843;DHT22;51310;52.198;5.422;2022-12-10T00:48:49;-0.90;99.90
64843;DHT22;51310;52.198;5.422;2022-12-10T00:51:21;-0.90;99.90
64843;DHT22;51310;52.198;5.422;2022-12-10T00:53:51;-1.00;99.90
64843;DHT22;51310;52.198;5.422;2022-12-10T00:56:21;-1.00;99.90
64843;DHT22;51310;52.198;5.422;2022-12-10T00:58:50;-0.90;99.90
64843;DHT22;51310;52.198;5.422;2022-12-10T01:03:50;-0.80;99.90
64843;DHT22;51310;52.198;5.422;2022-12-10T01:06:23;-0.70;99.90
64843;DHT22;51310;52.198;5.422;2022-12-10T01:08:57;-0.70;99.90
64843;DHT22;51310;52.198;5.422;2022-12-10T01:11:36;-0.60;99.90
64843;DHT22;51310;52.198;5.422;2022-12-10T01:14:06;-0.60;99.90
64843;DHT22;51310;52.198;5.422;2022-12-10T01:16:35;-0.60;99.90
64843;DHT22;51310;52.198;5.422;2022-12-10T01:19:02;-0.50;99.90
64843;DHT22;51310;52.198;5.422;2022-12-10T01:21:29;2.00;99.90
64843;DHT22;51310;52.198;5.422;2022-12-10T01:23:56;-0.50;99.90
64843;DHT22;51310;52.198;5.422;2022-12-10T01:26:26;-0.40;99.90
64843;DHT22;51310;52.198;5.422;2022-12-10T01:28:56;-0.40;99.90
64843;DHT22;51310;52.198;5.422;2022-12-10T01:31:28;-0.40;99.90
64843;DHT22;51310;52.198;5.422;2022-12-10T01:34:02;-0.40;99.90
64843;DHT22;51310;52.198;5.422;2022-12-10T01:36:40;-0.40;99.90
64843;DHT22;51310;52.198;5.422;2022-12-10T01:39:10;-0.40;99.90
64843;DHT22;51310;52.198;5.422;2022-12-10T01:46:50;-0.30;99.90
64843;DHT22;51310;52.198;5.422;2022-12-10T01:49:20;-0.20;99.90
64843;DHT22;51310;52.198;5.422;2022-12-10T01:51:55;-0.20;99.90
64843;DHT22;51310;52.198;5.422;2022-12-10T01:54:32;-0.20;99.90
64843;DHT22;51310;52.198;5.422;2022-12-10T01:57:23;-0.30;99.90
64843;DHT22;51310;52.198;5.422;2022-12-10T01:59:54;-0.20;99.90
64843;DHT22;51310;52.198;5.422;2022-12-10T02:02:46;-0.10;99.90
64843;DHT22;51310;52.198;5.422;2022-12-10T02:05:44;-0.20;99.90
64843;DHT22;51310;52.198;5.422;2022-12-10T02:08:28;-0.10;99.90
64843;DHT22;51310;52.198;5.422;2022-12-10T02:11:35;-0.20;99.90
64843;DHT22;51310;52.198;5.422;2022-12-10T02:16:58;0.00;99.90
64843;DHT22;51310;52.198;5.422;2022-12-10T02:22:41;-0.10;99.90
64843;DHT22;51310;52.198;5.422;2022-12-10T02:25:14;-0.10;99.90
64843;DHT22;51310;52.198;5.422;2022-12-10T02:30:47;-0.20;99.90
64843;DHT22;51310;52.198;5.422;2022-12-10T02:33:17;-0.30;99.90
64843;DHT22;51310;52.198;5.422;2022-12-10T02:35:47;-0.20;99.90
64843;DHT22;51310;52.198;5.422;2022-12-10T02:38:32;-0.10;99.90
64843;DHT22;51310;52.198;5.422;2022-12-10T02:41:09;-0.20;99.90
64843;DHT22;51310;52.198;5.422;2022-12-10T02:43:45;-0.40;99.90
64843;DHT22;51310;52.198;5.422;2022-12-10T02:46:15;-0.40;99.90
64843;DHT22;51310;52.198;5.422;2022-12-10T02:48:42;-0.40;99.90
64843;DHT22;51310;52.198;5.422;2022-12-10T02:51:08;-0.30;99.90
64843;DHT22;51310;52.198;5.422;2022-12-10T02:53:41;-0.30;99.90
64843;DHT22;51310;52.198;5.422;2022-12-10T02:56:53;-0.40;99.90
64843;DHT22;51310;52.198;5.422;2022-12-10T02:59:43;-0.40;99.90
64843;DHT22;51310;52.198;5.422;2022-12-10T03:02:35;-0.40;99.90
64843;DHT22;51310;52.198;5.422;2022-12-10T03:05:19;-0.30;99.90
64843;DHT22;51310;52.198;5.422;2022-12-10T03:13:23;-0.40;99.90
64843;DHT22;51310;52.198;5.422;2022-12-10T03:15:58;-0.20;99.90
64843;DHT22;51310;52.198;5.422;2022-12-10T03:18:27;-0.20;99.90
64843;DHT22;51310;52.198;5.422;2022-12-10T03:20:59;-0.10;99.90
64843;DHT22;51310;52.198;5.422;2022-12-10T03:23:31;-0.20;99.90
64843;DHT22;51310;52.198;5.422;2022-12-10T03:26:02;-0.20;99.90
64843;DHT22;51310;52.198;5.422;2022-12-10T03:28:34;-0.20;99.90
64843;DHT22;51310;52.198;5.422;2022-12-10T03:31:09;0.00;99.90
64843;DHT22;51310;52.198;5.422;2022-12-10T03:33:38;-0.10;99.90
64843;DHT22;51310;52.198;5.422;2022-12-10T03:36:06;-0.10;99.90
64843;DHT22;51310;52.198;5.422;2022-12-10T03:38:34;-0.10;99.90
64843;DHT22;51310;52.198;5.422;2022-12-10T03:41:02;-0.10;99.90
64843;DHT22;51310;52.198;5.422;2022-12-10T03:43:29;1.10;99.90
64843;DHT22;51310;52.198;5.422;2022-12-10T03:45:55;-0.20;99.90
64843;DHT22;51310;52.198;5.422;2022-12-10T03:48:20;-0.20;99.90
64843;DHT22;51310;52.198;5.422;2022-12-10T03:50:46;-0.10;99.90
64843;DHT22;51310;52.198;5.422;2022-12-10T03:53:12;-0.10;99.90
64843;DHT22;51310;52.198;5.422;2022-12-10T03:55:38;-0.20;99.90
64843;DHT22;51310;52.198;5.422;2022-12-10T03:58:05;-0.20;99.90
64843;DHT22;51310;52.198;5.422;2022-12-10T04:00:31;-0.30;99.90
64843;DHT22;51310;52.198;5.422;2022-12-10T04:02:56;-0.30;99.90
64843;DHT22;51310;52.198;5.422;2022-12-10T04:05:22;-0.30;99.90
64843;DHT22;51310;52.198;5.422;2022-12-10T04:07:48;-0.30;99.90
64843;DHT22;51310;52.198;5.422;2022-12-10T04:10:14;-0.30;99.90
64843;DHT22;51310;52.198;5.422;2022-12-10T04:12:40;-0.40;99.90
64843;DHT22;51310;52.198;5.422;2022-12-10T04:15:06;-0.40;99.90
64843;DHT22;51310;52.198;5.422;2022-12-10T04:17:52;-0.40;99.90
64843;DHT22;51310;52.198;5.422;2022-12-10T04:20:18;-0.30;99.90
64843;DHT22;51310;52.198;5.422;2022-12-10T04:23:02;-0.30;99.90
64843;DHT22;51310;52.198;5.422;2022-12-10T04:28:32;-0.50;99.90
64843;DHT22;51310;52.198;5.422;2022-12-10T04:30:57;-0.60;99.90
64843;DHT22;51310;52.198;5.422;2022-12-10T04:33:23;-0.30;99.90
64843;DHT22;51310;52.198;5.422;2022-12-10T04:35:49;-0.40;99.90
64843;DHT22;51310;52.198;5.422;2022-12-10T04:38:15;-0.40;99.90
64843;DHT22;51310;52.198;5.422;2022-12-10T04:40:41;-0.40;99.90
64843;DHT22;51310;52.198;5.422;2022-12-10T04:43:07;-0.40;99.90
64843;DHT22;51310;52.198;5.422;2022-12-10T04:45:34;-0.40;99.90
64843;DHT22;51310;52.198;5.422;2022-12-10T04:48:01;-0.40;99.90
64843;DHT22;51310;52.198;5.422;2022-12-10T04:50:27;-0.40;99.90
64843;DHT22;51310;52.198;5.422;2022-12-10T04:52:52;-0.30;99.90
64843;DHT22;51310;52.198;5.422;2022-12-10T04:55:18;-0.40;99.90
64843;DHT22;51310;52.198;5.422;2022-12-10T04:57:44;-0.30;99.90
64843;DHT22;51310;52.198;5.422;2022-12-10T05:00:11;-0.40;99.90
64843;DHT22;51310;52.198;5.422;2022-12-10T05:02:37;-0.40;99.90
64843;DHT22;51310;52.198;5.422;2022-12-10T05:05:03;-0.40;99.90
64843;DHT22;51310;52.198;5.422;2022-12-10T05:07:29;-0.40;99.90
64843;DHT22;51310;52.198;5.422;2022-12-10T05:09:55;-0.50;99.90
64843;DHT22;51310;52.198;5.422;2022-12-10T05:12:21;2.20;99.90
64843;DHT22;51310;52.198;5.422;2022-12-10T05:14:47;-0.40;99.90
64843;DHT22;51310;52.198;5.422;2022-12-10T05:17:13;-0.30;99.90
64843;DHT22;51310;52.198;5.422;2022-12-10T05:19:38;-0.30;99.90
64843;DHT22;51310;52.198;5.422;2022-12-10T05:22:04;-0.40;99.90
64843;DHT22;51310;52.198;5.422;2022-12-10T05:24:49;-0.40;99.90
64843;DHT22;51310;52.198;5.422;2022-12-10T05:27:15;-0.40;99.90
64843;DHT22;51310;52.198;5.422;2022-12-10T05:29:41;-0.40;99.90
64843;DHT22;51310;52.198;5.422;2022-12-10T05:32:07;-0.40;99.90
64843;DHT22;51310;52.198;5.422;2022-12-10T05:34:32;-0.40;99.90
64843;DHT22;51310;52.198;5.422;2022-12-10T05:37:02;-0.40;99.90
64843;DHT22;51310;52.198;5.422;2022-12-10T05:39:28;-0.40;99.90
64843;DHT22;51310;52.198;5.422;2022-12-10T05:41:53;-0.40;99.90
64843;DHT22;51310;52.198;5.422;2022-12-10T05:44:19;-0.50;99.90
64843;DHT22;51310;52.198;5.422;2022-12-10T05:46:45;-0.40;99.90
64843;DHT22;51310;52.198;5.422;2022-12-10T05:49:11;-0.40;99.90
64843;DHT22;51310;52.198;5.422;2022-12-10T05:51:38;-0.40;99.90
64843;DHT22;51310;52.198;5.422;2022-12-10T05:54:05;2.00;99.90
64843;DHT22;51310;52.198;5.422;2022-12-10T05:56:32;-0.30;99.90
64843;DHT22;51310;52.198;5.422;2022-12-10T05:59:02;-0.20;99.90
64843;DHT22;51310;52.198;5.422;2022-12-10T06:01:34;-0.30;99.90
64843;DHT22;51310;52.198;5.422;2022-12-10T06:04:02;-0.20;99.90
64843;DHT22;51310;52.198;5.422;2022-12-10T06:06:32;-0.30;99.90
64843;DHT22;51310;52.198;5.422;2022-12-10T06:09:03;-0.30;99.90
64843;DHT22;51310;52.198;5.422;2022-12-10T06:11:31;-0.20;99.90
64843;DHT22;51310;52.198;5.422;2022-12-10T06:13:58;-0.20;99.90
64843;DHT22;51310;52.198;5.422;2022-12-10T06:16:25;-0.20;99.90
64843;DHT22;51310;52.198;5.422;2022-12-10T06:18:53;-0.30;99.90
64843;DHT22;51310;52.198;5.422;2022-12-10T06:21:20;-0.30;99.90
64843;DHT22;51310;52.198;5.422;2022-12-10T06:23:48;-0.40;99.90
64843;DHT22;51310;52.198;5.422;2022-12-10T06:26:22;-0.30;99.90
64843;DHT22;51310;52.198;5.422;2022-12-10T06:28:51;-0.20;99.90
64843;DHT22;51310;52.198;5.422;2022-12-10T06:31:18;-0.20;99.90
64843;DHT22;51310;52.198;5.422;2022-12-10T06:33:45;-0.20;99.90
64843;DHT22;51310;52.198;5.422;2022-12-10T06:36:14;-0.20;99.90
64843;DHT22;51310;52.198;5.422;2022-12-10T06:38:41;-0.30;99.90
64843;DHT22;51310;52.198;5.422;2022-12-10T06:41:09;-0.20;99.90
64843;DHT22;51310;52.198;5.422;2022-12-10T06:43:38;-0.30;99.90
64843;DHT22;51310;52.198;5.422;2022-12-10T06:46:09;-0.20;99.90
64843;DHT22;51310;52.198;5.422;2022-12-10T06:48:38;-0.10;99.90
64843;DHT22;51310;52.198;5.422;2022-12-10T06:51:06;-0.20;99.90
64843;DHT22;51310;52.198;5.422;2022-12-10T06:53:34;-0.20;99.90
64843;DHT22;51310;52.198;5.422;2022-12-10T06:56:03;-0.20;99.90
64843;DHT22;51310;52.198;5.422;2022-12-10T06:58:32;-0.20;99.90
64843;DHT22;51310;52.198;5.422;2022-12-10T07:01:14;-0.20;99.90
64843;DHT22;51310;52.198;5.422;2022-12-10T07:03:54;-0.20;99.90
64843;DHT22;51310;52.198;5.422;2022-12-10T07:06:22;-0.20;99.90
64843;DHT22;51310;52.198;5.422;2022-12-10T07:08:50;-0.20;99.90
64843;DHT22;51310;52.198;5.422;2022-12-10T07:11:19;-0.20;99.90
64843;DHT22;51310;52.198;5.422;2022-12-10T07:13:48;-0.20;99.90
64843;DHT22;51310;52.198;5.422;2022-12-10T07:16:19;-0.20;99.90
64843;DHT22;51310;52.198;5.422;2022-12-10T07:18:51;-0.20;99.90
64843;DHT22;51310;52.198;5.422;2022-12-10T07:21:25;-0.20;99.90
64843;DHT22;51310;52.198;5.422;2022-12-10T07:24:00;-0.20;99.90
64843;DHT22;51310;52.198;5.422;2022-12-10T07:26:35;-0.20;99.90
64843;DHT22;51310;52.198;5.422;2022-12-10T07:29:06;-0.20;99.90
64843;DHT22;51310;52.198;5.422;2022-12-10T07:31:36;-0.20;99.90
64843;DHT22;51310;52.198;5.422;2022-12-10T07:34:02;-0.20;99.90
64843;DHT22;51310;52.198;5.422;2022-12-10T07:36:28;-0.20;99.90
64843;DHT22;51310;52.198;5.422;2022-12-10T07:38:55;-0.20;99.90
64843;DHT22;51310;52.198;5.422;2022-12-10T07:41:21;-0.20;99.90
64843;DHT22;51310;52.198;5.422;2022-12-10T07:43:48;-0.20;99.90
64843;DHT22;51310;52.198;5.422;2022-12-10T07:46:18;-0.20;99.90
64843;DHT22;51310;52.198;5.422;2022-12-10T07:48:51;-0.10;99.90
64843;DHT22;51310;52.198;5.422;2022-12-10T07:51:19;-0.10;99.90
64843;DHT22;51310;52.198;5.422;2022-12-10T07:53:50;-0.10;99.90
64843;DHT22;51310;52.198;5.422;2022-12-10T07:56:18;-0.10;99.90
64843;DHT22;51310;52.198;5.422;2022-12-10T07:58:45;-0.10;99.90
64843;DHT22;51310;52.198;5.422;2022-12-10T08:01:13;-0.10;99.90
64843;DHT22;51310;52.198;5.422;2022-12-10T08:03:42;-0.10;99.90
64843;DHT22;51310;52.198;5.422;2022-12-10T08:06:11;-0.10;99.90
64843;DHT22;51310;52.198;5.422;2022-12-10T08:08:41;0.00;99.90
64843;DHT22;51310;52.198;5.422;2022-12-10T08:11:09;-0.10;99.90
64843;DHT22;51310;52.198;5.422;2022-12-10T08:13:36;-0.20;99.90
64843;DHT22;51310;52.198;5.422;2022-12-10T08:16:17;-0.20;99.90
64843;DHT22;51310;52.198;5.422;2022-12-10T08:18:48;-0.10;99.90
64843;DHT22;51310;52.198;5.422;2022-12-10T08:21:16;-0.20;99.90
64843;DHT22;51310;52.198;5.422;2022-12-10T08:23:48;-0.20;99.90
64843;DHT22;51310;52.198;5.422;2022-12-10T08:26:18;-0.10;99.90
64843;DHT22;51310;52.198;5.422;2022-12-10T08:28:48;-0.10;99.90
64843;DHT22;51310;52.198;5.422;2022-12-10T08:31:15;-0.10;99.90
64843;DHT22;51310;52.198;5.422;2022-12-10T08:33:43;-0.10;99.90
64843;DHT22;51310;52.198;5.422;2022-12-10T08:36:11;-0.20;99.90
64843;DHT22;51310;52.198;5.422;2022-12-10T08:38:40;-0.20;99.90
64843;DHT22;51310;52.198;5.422;2022-12-10T08:41:11;-0.20;99.90
64843;DHT22;51310;52.198;5.422;2022-12-10T08:43:39;-0.20;99.90
64843;DHT22;51310;52.198;5.422;2022-12-10T08:46:07;-0.20;99.90
64843;DHT22;51310;52.198;5.422;2022-12-10T08:48:35;-0.10;99.90
64843;DHT22;51310;52.198;5.422;2022-12-10T08:51:03;-0.20;99.90
64843;DHT22;51310;52.198;5.422;2022-12-10T08:53:30;-0.10;99.90
64843;DHT22;51310;52.198;5.422;2022-12-10T08:55:56;-0.20;99.90
64843;DHT22;51310;52.198;5.422;2022-12-10T08:58:22;-0.20;99.90
64843;DHT22;51310;52.198;5.422;2022-12-10T09:00:49;-0.30;99.90
64843;DHT22;51310;52.198;5.422;2022-12-10T09:03:15;-0.20;99.90
64843;DHT22;51310;52.198;5.422;2022-12-10T09:05:42;-0.20;99.90
64843;DHT22;51310;52.198;5.422;2022-12-10T09:08:08;-0.20;99.90
64843;DHT22;51310;52.198;5.422;2022-12-10T09:10:36;-0.10;99.90
64843;DHT22;51310;52.198;5.422;2022-12-10T09:13:03;-0.10;99.90
64843;DHT22;51310;52.198;5.422;2022-12-10T09:15:29;-0.20;99.90
64843;DHT22;51310;52.198;5.422;2022-12-10T09:17:55;-0.10;99.90
64843;DHT22;51310;52.198;5.422;2022-12-10T09:20:21;-0.20;99.90
64843;DHT22;51310;52.198;5.422;2022-12-10T09:22:47;-0.30;99.90
64843;DHT22;51310;52.198;5.422;2022-12-10T09:25:13;-0.20;99.90
64843;DHT22;51310;52.198;5.422;2022-12-10T09:27:42;-0.10;99.90
64843;DHT22;51310;52.198;5.422;2022-12-10T09:30:10;0.00;99.90
64843;DHT22;51310;52.198;5.422;2022-12-10T09:32:37;0.00;99.90
64843;DHT22;51310;52.198;5.422;2022-12-10T09:35:03;0.00;99.90
64843;DHT22;51310;52.198;5.422;2022-12-10T09:37:29;0.10;99.90
64843;DHT22;51310;52.198;5.422;2022-12-10T09:39:55;0.10;99.90
64843;DHT22;51310;52.198;5.422;2022-12-10T09:45:19;0.10;99.90
64843;DHT22;51310;52.198;5.422;2022-12-10T09:48:24;0.10;99.90
64843;DHT22;51310;52.198;5.422;2022-12-10T09:51:22;0.10;99.90
64843;DHT22;51310;52.198;5.422;2022-12-10T09:53:56;0.00;99.90
64843;DHT22;51310;52.198;5.422;2022-12-10T09:56:35;-0.10;99.90
64843;DHT22;51310;52.198;5.422;2022-12-10T09:59:22;-0.10;99.90
64843;DHT22;51310;52.198;5.422;2022-12-10T10:05:01;-0.20;99.90
64843;DHT22;51310;52.198;5.422;2022-12-10T10:07:47;-0.20;99.90
64843;DHT22;51310;52.198;5.422;2022-12-10T10:10:30;-0.20;99.90
64843;DHT22;51310;52.198;5.422;2022-12-10T10:15:54;-0.20;99.90
64843;DHT22;51310;52.198;5.422;2022-12-10T10:18:34;-0.20;99.90
64843;DHT22;51310;52.198;5.422;2022-12-10T10:21:16;-0.80;99.90
64843;DHT22;51310;52.198;5.422;2022-12-10T10:23:49;0.00;99.90
64843;DHT22;51310;52.198;5.422;2022-12-10T10:26:16;0.00;99.90
64843;DHT22;51310;52.198;5.422;2022-12-10T10:28:43;0.00;99.90
64843;DHT22;51310;52.198;5.422;2022-12-10T10:31:25;0.00;99.90
64843;DHT22;51310;52.198;5.422;2022-12-10T10:33:59;0.00;99.90
64843;DHT22;51310;52.198;5.422;2022-12-10T10:36:33;0.10;99.90
64843;DHT22;51310;52.198;5.422;2022-12-10T10:39:28;0.20;99.90
64843;DHT22;51310;52.198;5.422;2022-12-10T10:41:58;0.10;99.90
64843;DHT22;51310;52.198;5.422;2022-12-10T10:44:28;0.10;99.90
64843;DHT22;51310;52.198;5.422;2022-12-10T10:47:02;0.20;99.90
64843;DHT22;51310;52.198;5.422;2022-12-10T10:49:51;0.20;99.90
64843;DHT22;51310;52.198;5.422;2022-12-10T10:52:18;2.40;99.90
64843;DHT22;51310;52.198;5.422;2022-12-10T10:54:46;0.20;99.90
64843;DHT22;51310;52.198;5.422;2022-12-10T10:57:33;0.30;99.90
64843;DHT22;51310;52.198;5.422;2022-12-10T11:00:21;0.20;99.90
64843;DHT22;51310;52.198;5.422;2022-12-10T11:02:48;0.10;99.90
64843;DHT22;51310;52.198;5.422;2022-12-10T11:05:26;0.10;99.90
64843;DHT22;51310;52.198;5.422;2022-12-10T11:08:13;0.10;99.90
64843;DHT22;51310;52.198;5.422;2022-12-10T11:10:50;0.20;99.90
64843;DHT22;51310;52.198;5.422;2022-12-10T11:13:25;0.20;99.90
64843;DHT22;51310;52.198;5.422;2022-12-10T11:16:23;0.30;99.90
64843;DHT22;51310;52.198;5.422;2022-12-10T11:18:59;0.20;99.90
64843;DHT22;51310;52.198;5.422;2022-12-10T11:21:30;0.30;99.90
64843;DHT22;51310;52.198;5.422;2022-12-10T11:23:59;0.30;99.90
64843;DHT22;51310;52.198;5.422;2022-12-10T11:29:54;0.40;99.90
64843;DHT22;51310;52.198;5.422;2022-12-10T11:36:21;0.30;99.90
64843;DHT22;51310;52.198;5.422;2022-12-10T11:45:43;0.20;99.90
64843;DHT22;51310;52.198;5.422;2022-12-10T12:04:13;0.20;99.90
64843;DHT22;51310;52.198;5.422;2022-12-10T12:07:42;0.10;99.90
64843;DHT22;51310;52.198;5.422;2022-12-10T12:18:54;0.50;99.90
64843;DHT22;51310;52.198;5.422;2022-12-10T12:21:38;0.40;99.90
64843;DHT22;51310;52.198;5.422;2022-12-10T12:24:37;0.50;99.90
64843;DHT22;51310;52.198;5.422;2022-12-10T12:27:19;0.50;99.90
64843;DHT22;51310;52.198;5.422;2022-12-10T12:30:24;0.50;99.90
64843;DHT22;51310;52.198;5.422;2022-12-10T12:32:57;0.60;99.90
64843;DHT22;51310;52.198;5.422;2022-12-10T12:35:57;0.60;99.90
64843;DHT22;51310;52.198;5.422;2022-12-10T12:38:32;0.60;99.90
64843;DHT22;51310;52.198;5.422;2022-12-10T12:47:11;0.60;99.90
64843;DHT22;51310;52.198;5.422;2022-12-10T12:49:53;0.50;99.90
64843;DHT22;51310;52.198;5.422;2022-12-10T12:55:18;0.50;99.90
64843;DHT22;51310;52.198;5.422;2022-12-10T12:58:25;0.60;99.90
64843;DHT22;51310;52.198;5.422;2022-12-10T13:01:27;0.60;99.90
64843;DHT22;51310;52.198;5.422;2022-12-10T13:04:03;0.60;99.90
64843;DHT22;51310;52.198;5.422;2022-12-10T13:06:33;0.70;99.90
64843;DHT22;51310;52.198;5.422;2022-12-10T13:14:35;0.50;99.90
64843;DHT22;51310;52.198;5.422;2022-12-10T13:17:32;0.50;99.90
64843;DHT22;51310;52.198;5.422;2022-12-10T13:23:01;0.60;99.90
64843;DHT22;51310;52.198;5.422;2022-12-10T13:28:30;0.60;99.90
64843;DHT22;51310;52.198;5.422;2022-12-10T13:39:22;0.60;99.90
64843;DHT22;51310;52.198;5.422;2022-12-10T13:45:16;0.60;99.90
64843;DHT22;51310;52.198;5.422;2022-12-10T13:50:49;0.40;99.90
64843;DHT22;51310;52.198;5.422;2022-12-10T13:56:55;0.40;99.90
64843;DHT22;51310;52.198;5.422;2022-12-10T14:02:50;2.80;99.90
64843;DHT22;51310;52.198;5.422;2022-12-10T14:08:57;0.40;99.90
64843;DHT22;51310;52.198;5.422;2022-12-10T14:11:32;0.50;99.90
64843;DHT22;51310;52.198;5.422;2022-12-10T14:14:06;3.20;99.90
64843;DHT22;51310;52.198;5.422;2022-12-10T14:16:48;0.50;99.90
64843;DHT22;51310;52.198;5.422;2022-12-10T14:19:15;0.50;99.90
64843;DHT22;51310;52.198;5.422;2022-12-10T14:21:44;0.30;99.90
64843;DHT22;51310;52.198;5.422;2022-12-10T14:24:33;0.40;99.90
64843;DHT22;51310;52.198;5.422;2022-12-10T14:27:18;0.40;99.90
64843;DHT22;51310;52.198;5.422;2022-12-10T14:29:51;0.20;99.90
64843;DHT22;51310;52.198;5.422;2022-12-10T14:32:33;0.20;99.90
64843;DHT22;51310;52.198;5.422;2022-12-10T14:35:05;0.20;99.90
64843;DHT22;51310;52.198;5.422;2022-12-10T14:37:44;0.30;99.90
64843;DHT22;51310;52.198;5.422;2022-12-10T14:40:23;0.30;99.90
64843;DHT22;51310;52.198;5.422;2022-12-10T14:42:55;0.30;99.90
64843;DHT22;51310;52.198;5.422;2022-12-10T14:45:38;0.30;99.90
64843;DHT22;51310;52.198;5.422;2022-12-10T14:48:21;0.50;99.90
64843;DHT22;51310;52.198;5.422;2022-12-10T14:50:48;0.40;99.90
64843;DHT22;51310;52.198;5.422;2022-12-10T14:53:23;0.50;99.90
64843;DHT22;51310;52.198;5.422;2022-12-10T14:55:55;0.50;99.90
64843;DHT22;51310;52.198;5.422;2022-12-10T15:01:29;0.40;99.90
64843;DHT22;51310;52.198;5.422;2022-12-10T15:04:02;0.40;99.90
64843;DHT22;51310;52.198;5.422;2022-12-10T15:06:37;0.40;99.90
64843;DHT22;51310;52.198;5.422;2022-12-10T15:09:05;0.40;99.90
64843;DHT22;51310;52.198;5.422;2022-12-10T15:11:55;0.30;99.90
64843;DHT22;51310;52.198;5.422;2022-12-10T15:14:24;0.30;99.90
64843;DHT22;51310;52.198;5.422;2022-12-10T15:16:53;2.70;99.90
64843;DHT22;51310;52.198;5.422;2022-12-10T15:19:23;0.20;99.90
64843;DHT22;51310;52.198;5.422;2022-12-10T15:22:00;0.20;99.90
64843;DHT22;51310;52.198;5.422;2022-12-10T15:24:48;0.20;99.90
64843;DHT22;51310;52.198;5.422;2022-12-10T15:27:16;0.30;99.90
64843;DHT22;51310;52.198;5.422;2022-12-10T15:29:46;0.20;99.90
64843;DHT22;51310;52.198;5.422;2022-12-10T15:32:31;0.20;99.90
64843;DHT22;51310;52.198;5.422;2022-12-10T15:35:00;2.80;99.90
64843;DHT22;51310;52.198;5.422;2022-12-10T15:37:34;0.20;99.90
64843;DHT22;51310;52.198;5.422;2022-12-10T15:40:19;0.20;99.90
64843;DHT22;51310;52.198;5.422;2022-12-10T15:42:57;0.20;99.90
64843;DHT22;51310;52.198;5.422;2022-12-10T15:45:41;0.30;99.90
64843;DHT22;51310;52.198;5.422;2022-12-10T15:48:10;0.30;99.90
64843;DHT22;51310;52.198;5.422;2022-12-10T15:50:39;0.30;99.90
64843;DHT22;51310;52.198;5.422;2022-12-10T15:53:16;0.30;99.90
64843;DHT22;51310;52.198;5.422;2022-12-10T15:55:51;0.30;99.90
64843;DHT22;51310;52.198;5.422;2022-12-10T15:58:17;0.30;99.90
64843;DHT22;51310;52.198;5.422;2022-12-10T16:00:43;0.40;99.90
64843;DHT22;51310;52.198;5.422;2022-12-10T16:03:16;0.50;99.90
64843;DHT22;51310;52.198;5.422;2022-12-10T16:05:44;0.50;99.90
64843;DHT22;51310;52.198;5.422;2022-12-10T16:10:45;0.50;99.90
64843;DHT22;51310;52.198;5.422;2022-12-10T16:13:20;0.50;99.90
64843;DHT22;51310;52.198;5.422;2022-12-10T16:16:03;0.50;99.90
64843;DHT22;51310;52.198;5.422;2022-12-10T16:18:32;0.50;99.90
64843;DHT22;51310;52.198;5.422;2022-12-10T16:21:01;0.60;99.90
64843;DHT22;51310;52.198;5.422;2022-12-10T16:23:29;0.70;99.90
64843;DHT22;51310;52.198;5.422;2022-12-10T16:25:55;0.60;99.90
64843;DHT22;51310;52.198;5.422;2022-12-10T16:28:22;0.70;99.90
64843;DHT22;51310;52.198;5.422;2022-12-10T16:30:50;0.60;99.90
64843;DHT22;51310;52.198;5.422;2022-12-10T16:33:22;0.70;99.90
64843;DHT22;51310;52.198;5.422;2022-12-10T16:35:50;0.70;99.90
64843;DHT22;51310;52.198;5.422;2022-12-10T16:38:19;0.80;99.90
64843;DHT22;51310;52.198;5.422;2022-12-10T16:40:45;0.70;99.90
64843;DHT22;51310;52.198;5.422;2022-12-10T16:43:23;0.70;99.90
64843;DHT22;51310;52.198;5.422;2022-12-10T16:48:20;0.80;99.90
64843;DHT22;51310;52.198;5.422;2022-12-10T16:50:49;0.80;99.90
64843;DHT22;51310;52.198;5.422;2022-12-10T16:53:22;0.80;99.90
64843;DHT22;51310;52.198;5.422;2022-12-10T16:55:55;0.80;99.90
64843;DHT22;51310;52.198;5.422;2022-12-10T16:58:22;0.80;99.90
64843;DHT22;51310;52.198;5.422;2022-12-10T17:00:53;0.80;99.90
64843;DHT22;51310;52.198;5.422;2022-12-10T17:03:22;0.70;99.90
64843;DHT22;51310;52.198;5.422;2022-12-10T17:05:59;0.70;99.90
64843;DHT22;51310;52.198;5.422;2022-12-10T17:08:27;0.50;99.90
64843;DHT22;51310;52.198;5.422;2022-12-10T17:10:54;0.70;99.90
64843;DHT22;51310;52.198;5.422;2022-12-10T17:13:42;2.70;99.90
64843;DHT22;51310;52.198;5.422;2022-12-10T17:16:13;0.70;99.90
64843;DHT22;51310;52.198;5.422;2022-12-10T17:18:44;0.80;99.90
64843;DHT22;51310;52.198;5.422;2022-12-10T17:23:36;0.80;99.90
64843;DHT22;51310;52.198;5.422;2022-12-10T17:26:02;0.70;99.90
64843;DHT22;51310;52.198;5.422;2022-12-10T17:28:30;0.80;99.90
64843;DHT22;51310;52.198;5.422;2022-12-10T17:30:57;0.80;99.90
64843;DHT22;51310;52.198;5.422;2022-12-10T17:33:24;0.70;99.90
64843;DHT22;51310;52.198;5.422;2022-12-10T17:35:51;0.70;99.90
64843;DHT22;51310;52.198;5.422;2022-12-10T17:38:24;0.80;99.90
64843;DHT22;51310;52.198;5.422;2022-12-10T17:40:51;0.70;99.90
64843;DHT22;51310;52.198;5.422;2022-12-10T17:43:18;0.80;99.90
64843;DHT22;51310;52.198;5.422;2022-12-10T17:45:44;0.70;99.90
64843;DHT22;51310;52.198;5.422;2022-12-10T17:48:16;0.70;99.90
64843;DHT22;51310;52.198;5.422;2022-12-10T17:50:44;0.60;99.90
64843;DHT22;51310;52.198;5.422;2022-12-10T17:53:12;0.70;99.90
64843;DHT22;51310;52.198;5.422;2022-12-10T17:55:44;0.70;99.90
64843;DHT22;51310;52.198;5.422;2022-12-10T17:58:15;0.70;99.90
64843;DHT22;51310;52.198;5.422;2022-12-10T18:00:41;0.80;99.90
64843;DHT22;51310;52.198;5.422;2022-12-10T18:03:08;0.90;99.90
64843;DHT22;51310;52.198;5.422;2022-12-10T18:05:34;0.90;99.90
64843;DHT22;51310;52.198;5.422;2022-12-10T18:08:00;0.90;99.90
64843;DHT22;51310;52.198;5.422;2022-12-10T18:10:29;0.90;99.90
64843;DHT22;51310;52.198;5.422;2022-12-10T18:12:58;0.90;99.90
64843;DHT22;51310;52.198;5.422;2022-12-10T18:15:26;0.90;99.90
64843;DHT22;51310;52.198;5.422;2022-12-10T18:17:54;1.00;99.90